Time;durP1;ratioP1;P1;durP2;ratioP2;P2;SDS_P1;SDS_P2;PMS_P1;PMS_P2;Temp;Humidity;BMP_temperature;BMP_pressure;BME280_temperature;BME280_humidity;BME280_pressure;Samples;Min_cycle;Max_cycle;Signal;HPM_P1;HPM_P2
2022/11/03 00:01:11;;;;;;;7.03;2.20;;;12.20;99.90;;;;;;5050819;28;20209;-78
2022/11/03 00:03:39;;;;;;;5.80;1.60;;;12.20;99.90;;;;;;5025754;28;20236;-78
2022/11/03 00:06:07;;;;;;;12.47;2.47;;;12.20;99.90;;;;;;5030880;28;20202;-78
2022/11/03 00:08:36;;;;;;;11.40;3.10;;;12.20;99.90;;;;;;5029545;28;20221;-78
2022/11/03 00:11:09;;;;;;;7.43;1.90;;;12.20;99.90;;;;;;5046996;28;20198;-78
2022/11/03 00:13:38;;;;;;;5.40;2.30;;;12.20;99.90;;;;;;5026497;28;20581;-78
2022/11/03 00:16:07;;;;;;;8.30;2.10;;;12.20;99.90;;;;;;5031314;28;20202;-78
2022/11/03 00:18:38;;;;;;;5.27;2.07;;;12.20;99.90;;;;;;5027271;28;20191;-78
2022/11/03 00:21:10;;;;;;;6.77;1.60;;;12.20;99.90;;;;;;5020347;28;20227;-79
2022/11/03 00:23:39;;;;;;;10.43;2.80;;;12.20;99.90;;;;;;5027344;28;20587;-78
2022/11/03 00:26:10;;;;;;;8.10;1.43;;;12.20;99.90;;;;;;5041379;28;20191;-78
2022/11/03 00:28:38;;;;;;;5.18;1.70;;;12.20;99.90;;;;;;5029157;28;20195;-78
2022/11/03 00:31:10;;;;;;;9.60;2.33;;;12.20;99.90;;;;;;5025194;28;20199;-78
2022/11/03 00:33:40;;;;;;;6.07;1.60;;;12.30;99.90;;;;;;5026834;28;20215;-78
2022/11/03 00:36:11;;;;;;;5.33;2.27;;;12.30;99.90;;;;;;5048548;28;20194;-78
2022/11/03 00:38:38;;;;;;;7.97;2.67;;;12.30;99.90;;;;;;5049957;28;20202;-79
2022/11/03 00:41:06;;;;;;;8.67;2.17;;;12.30;99.90;;;;;;5033546;28;20198;-78
2022/11/03 00:43:35;;;;;;;7.57;2.33;;;12.40;99.90;;;;;;5027121;28;20214;-78
2022/11/03 00:46:04;;;;;;;5.63;1.90;;;12.40;99.90;;;;;;5030157;28;20667;-78
2022/11/03 00:48:33;;;;;;;10.10;2.30;;;12.40;99.90;;;;;;5034238;28;20202;-79
2022/11/03 00:51:03;;;;;;;6.67;2.07;;;12.40;99.90;;;;;;5027275;28;20203;-78
2022/11/03 00:53:32;;;;;;;7.03;2.10;;;12.40;99.90;;;;;;5047081;28;20222;-79
2022/11/03 00:56:00;;;;;;;8.35;2.17;;;12.40;99.90;;;;;;5021934;28;20206;-78
2022/11/03 00:58:27;;;;;;;9.10;2.37;;;12.50;99.90;;;;;;5032978;28;20202;-78
2022/11/03 01:01:02;;;;;;;7.07;2.33;;;12.50;99.90;;;;;;5027654;28;20207;-78
2022/11/03 01:03:31;;;;;;;7.32;2.05;;;12.50;99.90;;;;;;5023205;28;20222;-78
2022/11/03 01:08:45;;;;;;;8.25;2.40;;;12.50;99.90;;;;;;5029976;28;20201;-78
2022/11/03 01:13:59;;;;;;;6.07;2.03;;;12.50;99.90;;;;;;5048495;28;20217;-78
2022/11/03 01:16:27;;;;;;;7.87;2.30;;;12.50;99.90;;;;;;5053584;28;20197;-78
2022/11/03 01:18:55;;;;;;;5.05;2.17;;;12.50;99.90;;;;;;5033235;28;20199;-78
2022/11/03 01:21:23;;;;;;;6.57;2.30;;;12.50;99.90;;;;;;5035889;28;20194;-78
2022/11/03 01:23:52;;;;;;;5.47;2.30;;;12.50;99.90;;;;;;5036802;28;20226;-78
2022/11/03 01:26:19;;;;;;;6.10;2.30;;;12.40;99.90;;;;;;5030208;28;20371;-78
2022/11/03 01:28:48;;;;;;;11.27;2.30;;;12.40;99.90;;;;;;5034757;28;20190;-78
2022/11/03 01:31:17;;;;;;;8.63;2.83;;;12.40;99.90;;;;;;5025936;28;20213;-78
2022/11/03 01:33:45;;;;;;;7.20;2.73;;;12.50;99.90;;;;;;5032750;28;20226;-78
2022/11/03 01:36:35;;;;;;;7.63;2.85;;;12.40;99.90;;;;;;5036606;28;20545;-78
2022/11/03 01:39:03;;;;;;;8.13;2.00;;;12.40;99.90;;;;;;5035749;28;20202;-78
2022/11/03 01:41:31;;;;;;;6.80;2.40;;;12.50;99.90;;;;;;5033756;28;20222;-78
2022/11/03 01:44:24;;;;;;;5.83;2.63;;;12.40;99.90;;;;;;5032388;28;20222;-78
2022/11/03 01:46:55;;;;;;;6.07;2.10;;;12.40;99.90;;;;;;5027632;28;20213;-78
2022/11/03 01:49:27;;;;;;;5.78;2.25;;;12.40;99.90;;;;;;5032551;28;20210;-78
2022/11/03 01:52:00;;;;;;;4.77;2.37;;;12.30;99.90;;;;;;5031437;28;20205;-78
2022/11/03 01:54:31;;;;;;;8.23;2.30;;;12.30;99.90;;;;;;5032373;28;20218;-78
2022/11/03 01:56:59;;;;;;;5.90;2.23;;;12.30;99.90;;;;;;5033974;28;20195;-78
2022/11/03 01:59:28;;;;;;;9.23;2.20;;;12.30;99.90;;;;;;5028451;28;20205;-78
2022/11/03 02:01:55;;;;;;;6.80;2.60;;;12.30;99.90;;;;;;5047812;28;20209;-78
2022/11/03 02:04:27;;;;;;;9.60;2.57;;;12.20;99.90;;;;;;5023483;28;20222;-78
2022/11/03 02:06:59;;;;;;;9.93;2.30;;;12.20;99.90;;;;;;5032972;28;20198;-79
2022/11/03 02:09:29;;;;;;;5.53;2.00;;;12.20;99.90;;;;;;5037280;28;20217;-78
2022/11/03 02:12:06;;;;;;;7.80;2.50;;;12.20;99.90;;;;;;5037850;28;20226;-78
2022/11/03 02:14:34;;;;;;;7.30;2.63;;;12.20;99.90;;;;;;5033658;28;20226;-78
2022/11/03 02:17:06;;;;;;;5.67;2.40;;;12.20;99.90;;;;;;5026659;28;20207;-78
2022/11/03 02:19:37;;;;;;;10.23;2.53;;;12.10;99.90;;;;;;5053635;28;20195;-78
2022/11/03 02:22:26;;;;;;;7.72;2.53;;;12.10;99.90;;;;;;5028523;28;20206;-78
2022/11/03 02:25:02;;;;;;;5.90;2.37;;;12.10;99.90;;;;;;5031310;28;20230;-78
2022/11/03 02:27:31;;;;;;;5.80;2.13;;;12.20;99.90;;;;;;5033194;28;20674;-78
2022/11/03 02:29:59;;;;;;;7.80;2.13;;;12.20;99.90;;;;;;5029637;28;20195;-78
2022/11/03 02:32:33;;;;;;;5.53;2.60;;;12.20;99.90;;;;;;5033107;28;20209;-78
2022/11/03 02:35:05;;;;;;;7.17;2.30;;;12.20;99.90;;;;;;5051433;28;20707;-78
2022/11/03 02:37:36;;;;;;;5.70;2.23;;;12.20;99.90;;;;;;5027727;28;20203;-78
2022/11/03 02:40:07;;;;;;;6.67;2.40;;;12.20;99.90;;;;;;5031579;28;20296;-78
2022/11/03 02:42:39;;;;;;;8.93;3.57;;;12.20;99.90;;;;;;5033585;28;20209;-78
2022/11/03 02:45:10;;;;;;;6.07;2.10;;;12.20;99.90;;;;;;5032076;28;20217;-79
2022/11/03 02:47:39;;;;;;;8.60;2.63;;;12.20;99.90;;;;;;5048323;28;20921;-79
2022/11/03 02:50:09;;;;;;;5.73;2.20;;;12.10;99.90;;;;;;5021863;28;20210;-78
2022/11/03 02:52:39;;;;;;;6.80;2.20;;;12.20;99.90;;;;;;5022191;28;20213;-79
2022/11/03 02:55:15;;;;;;;6.80;2.10;;;12.20;99.90;;;;;;5036168;28;20214;-78
2022/11/03 02:57:51;;;;;;;7.67;2.40;;;12.20;99.90;;;;;;5034442;28;20698;-78
2022/11/03 03:00:18;;;;;;;8.23;2.17;;;12.20;99.90;;;;;;5030321;28;20201;-78
2022/11/03 03:02:54;;;;;;;7.33;2.00;;;12.10;99.90;;;;;;5030195;28;20210;-78
2022/11/03 03:05:27;;;;;;;8.07;1.97;;;12.20;99.90;;;;;;5029059;28;20225;-78
2022/11/03 03:07:59;;;;;;;8.10;2.03;;;12.10;99.90;;;;;;5030366;28;20210;-78
2022/11/03 03:10:31;;;;;;;7.90;2.23;;;12.10;99.90;;;;;;5031345;28;20203;-78
2022/11/03 03:13:01;;;;;;;6.57;2.37;;;12.20;99.90;;;;;;5027759;28;20663;-78
2022/11/03 03:15:39;;;;;;;5.93;1.80;;;12.20;99.90;;;;;;5050109;28;20203;-78
2022/11/03 03:18:15;;;;;;;7.35;2.05;;;12.20;99.90;;;;;;5051684;28;20197;-78
2022/11/03 03:20:53;;;;;;;7.27;2.10;;;12.10;99.90;;;;;;5024268;28;20194;-78
2022/11/03 03:23:22;;;;;;;9.90;2.63;;;12.20;99.90;;;;;;5025522;28;20234;-78
2022/11/03 03:25:55;;;;;;;5.80;2.17;;;12.10;99.90;;;;;;5047759;28;20586;-78
2022/11/03 03:28:27;;;;;;;6.17;1.90;;;12.20;99.90;;;;;;5030627;28;20198;-78
2022/11/03 03:31:01;;;;;;;8.93;2.20;;;12.20;99.90;;;;;;5053054;28;20688;-78
2022/11/03 03:33:31;;;;;;;6.70;2.40;;;12.20;99.90;;;;;;5020133;28;20700;-78
2022/11/03 03:36:00;;;;;;;6.73;3.13;;;12.20;99.90;;;;;;5031143;28;20197;-78
2022/11/03 03:38:33;;;;;;;4.25;2.25;;;12.10;99.90;;;;;;5032950;28;20198;-79
2022/11/03 03:41:01;;;;;;;7.83;2.20;;;12.20;99.90;;;;;;5034492;28;20195;-78
2022/11/03 03:43:32;;;;;;;5.85;2.45;;;12.20;99.90;;;;;;5035382;28;20218;-78
2022/11/03 03:46:06;;;;;;;5.72;2.35;;;12.20;99.90;;;;;;5043379;28;20218;-78
2022/11/03 03:48:33;;;;;;;4.17;2.03;;;12.20;99.90;;;;;;5024027;28;20194;-78
2022/11/03 03:51:02;;;;;;;7.03;2.33;;;12.20;99.90;;;;;;5033081;28;20202;-78
2022/11/03 03:53:30;;;;;;;8.17;2.43;;;12.20;99.90;;;;;;5031488;28;20219;-78
2022/11/03 03:55:59;;;;;;;6.80;2.50;;;12.20;99.90;;;;;;5050461;28;20209;-78
2022/11/03 03:58:26;;;;;;;5.07;2.00;;;12.10;99.90;;;;;;5033814;28;20229;-78
2022/11/03 04:00:55;;;;;;;4.90;2.30;;;12.20;99.90;;;;;;5051109;28;20198;-78
2022/11/03 04:03:24;;;;;;;5.60;2.00;;;12.20;99.90;;;;;;5028473;28;20225;-78
2022/11/03 04:05:54;;;;;;;7.97;2.30;;;12.20;99.90;;;;;;5020008;28;20219;-78
2022/11/03 04:08:21;;;;;;;6.53;2.27;;;12.10;99.90;;;;;;5047534;28;20198;-78
2022/11/03 04:24:32;;;;;;;9.60;2.53;;;12.20;99.90;;;;;;5027007;28;20205;-78
2022/11/03 04:27:11;;;;;;;7.13;2.22;;;12.20;99.90;;;;;;5033258;28;20207;-78
2022/11/03 04:29:38;;;;;;;5.18;2.03;;;12.20;99.90;;;;;;5024265;28;20201;-78
2022/11/03 04:32:13;;;;;;;6.73;2.93;;;12.20;99.90;;;;;;5046487;28;20197;-79
2022/11/03 04:34:41;;;;;;;6.90;2.63;;;12.20;99.90;;;;;;5028124;28;20220;-78
2022/11/03 04:37:12;;;;;;;6.27;2.17;;;12.20;99.90;;;;;;5057449;22;20201;-78
2022/11/03 04:39:39;;;;;;;8.73;2.00;;;12.20;99.90;;;;;;5068232;28;20212;-78
2022/11/03 04:42:15;;;;;;;8.00;2.70;;;12.30;99.90;;;;;;5068900;28;20202;-78
2022/11/03 04:44:43;;;;;;;6.83;2.20;;;12.30;99.90;;;;;;5078764;28;20208;-78
2022/11/03 04:47:13;;;;;;;6.73;2.83;;;12.30;99.90;;;;;;5071589;28;20217;-78
2022/11/03 04:49:41;;;;;;;5.68;2.55;;;12.30;99.90;;;;;;5053689;28;20194;-78
2022/11/03 04:52:15;;;;;;;5.22;2.38;;;12.30;99.90;;;;;;5055997;28;20194;-78
2022/11/03 04:54:43;;;;;;;6.43;2.50;;;12.30;99.90;;;;;;5053003;28;20205;-78
2022/11/03 04:57:13;;;;;;;8.23;2.33;;;12.30;99.90;;;;;;5051451;28;20658;-78
2022/11/03 04:59:41;;;;;;;7.28;2.10;;;12.30;99.90;;;;;;5064317;28;20210;-78
2022/11/03 05:02:16;;;;;;;6.37;2.60;;;12.30;99.90;;;;;;5055364;28;20667;-79
2022/11/03 05:04:43;;;;;;;9.02;2.70;;;12.30;99.90;;;;;;5058699;28;20202;-78
2022/11/03 05:07:22;;;;;;;6.20;2.22;;;12.30;99.90;;;;;;5050299;28;20218;-78
2022/11/03 05:09:51;;;;;;;8.75;2.38;;;12.30;99.90;;;;;;5049388;28;20206;-78
2022/11/03 05:12:20;;;;;;;7.07;2.25;;;12.30;99.90;;;;;;5051669;28;20201;-78
2022/11/03 05:14:47;;;;;;;6.25;2.17;;;12.30;99.90;;;;;;5052073;28;20209;-78
2022/11/03 05:17:23;;;;;;;7.67;2.27;;;12.30;99.90;;;;;;5068473;28;20652;-78
2022/11/03 05:19:55;;;;;;;5.73;2.20;;;12.20;99.90;;;;;;5050287;28;20202;-78
2022/11/03 05:22:28;;;;;;;5.15;2.25;;;12.20;99.90;;;;;;5051009;28;20563;-78
2022/11/03 05:25:10;;;;;;;5.33;2.20;;;12.20;99.90;;;;;;5054803;28;20190;-78
2022/11/03 05:27:40;;;;;;;7.70;2.67;;;12.30;99.90;;;;;;5054194;28;20567;-78
2022/11/03 05:30:13;;;;;;;8.10;2.85;;;12.30;99.90;;;;;;5052073;28;20202;-78
2022/11/03 05:32:42;;;;;;;9.00;2.30;;;12.20;99.90;;;;;;5050260;28;20202;-78
2022/11/03 05:35:19;;;;;;;8.23;2.30;;;12.30;99.90;;;;;;5052966;28;20539;-78
2022/11/03 05:37:46;;;;;;;6.37;2.40;;;12.30;99.90;;;;;;5051505;28;20237;-78
2022/11/03 05:40:22;;;;;;;11.45;2.65;;;12.30;99.90;;;;;;5051026;28;20209;-78
2022/11/03 05:42:53;;;;;;;10.40;3.00;;;12.30;99.90;;;;;;5050551;28;20194;-78
2022/11/03 05:45:24;;;;;;;6.77;1.93;;;12.30;99.90;;;;;;5048267;28;20213;-78
2022/11/03 05:47:55;;;;;;;10.13;2.30;;;12.30;99.90;;;;;;5071275;28;20234;-77
2022/11/03 05:50:27;;;;;;;5.30;2.20;;;12.30;99.90;;;;;;5044217;28;20209;-78
2022/11/03 05:53:24;;;;;;;5.03;1.77;;;12.40;99.90;;;;;;5050460;28;20201;-78
2022/11/03 05:55:51;;;;;;;8.15;2.80;;;12.40;99.90;;;;;;5045256;28;20420;-78
2022/11/03 05:58:25;;;;;;;6.00;2.43;;;12.40;99.90;;;;;;5067257;28;20218;-78
2022/11/03 06:00:53;;;;;;;4.53;1.55;;;12.50;99.90;;;;;;5048253;28;20210;-80
2022/11/03 06:03:25;;;;;;;6.03;2.07;;;12.50;99.90;;;;;;5066260;28;20203;-78
2022/11/03 06:05:52;;;;;;;5.83;1.90;;;12.50;99.90;;;;;;5055027;28;20202;-79
2022/11/03 06:08:22;;;;;;;5.78;2.25;;;12.60;99.90;;;;;;5053483;28;20222;-79
2022/11/03 06:10:51;;;;;;;6.30;1.83;;;12.60;99.90;;;;;;5050474;28;20202;-80
2022/11/03 06:13:22;;;;;;;6.28;2.30;;;12.60;99.90;;;;;;5045358;28;20207;-79
2022/11/03 06:15:56;;;;;;;5.50;1.90;;;12.60;99.90;;;;;;5049389;28;20222;-78
2022/11/03 06:18:30;;;;;;;5.83;2.50;;;12.60;99.90;;;;;;5049011;28;20222;-79
2022/11/03 06:21:03;;;;;;;6.40;2.27;;;12.60;99.90;;;;;;5046039;28;20464;-78
2022/11/03 06:23:33;;;;;;;5.97;2.30;;;12.60;99.90;;;;;;5046981;28;20202;-78
2022/11/03 06:26:08;;;;;;;8.83;2.70;;;12.60;99.90;;;;;;5046523;28;20225;-79
2022/11/03 06:28:38;;;;;;;6.93;2.10;;;12.70;99.90;;;;;;5050008;28;20309;-78
2022/11/03 06:31:18;;;;;;;7.10;2.33;;;12.60;99.90;;;;;;5052646;28;20190;-78
2022/11/03 06:33:51;;;;;;;7.23;1.87;;;12.70;99.90;;;;;;5050657;28;20194;-79
2022/11/03 06:36:24;;;;;;;6.80;1.98;;;12.70;99.90;;;;;;5047924;28;20195;-79
2022/11/03 06:39:01;;;;;;;8.50;2.20;;;12.70;99.90;;;;;;5049221;28;20268;-79
2022/11/03 06:41:32;;;;;;;9.37;2.40;;;12.70;99.90;;;;;;5057712;28;20705;-78
2022/11/03 06:44:02;;;;;;;8.70;2.05;;;12.70;99.90;;;;;;5045690;28;20555;-78
2022/11/03 06:46:30;;;;;;;11.73;2.23;;;12.70;99.90;;;;;;5049765;28;20218;-78
2022/11/03 06:49:03;;;;;;;8.90;2.40;;;12.70;99.90;;;;;;5046603;28;20574;-80
2022/11/03 06:51:35;;;;;;;7.97;2.53;;;12.70;99.90;;;;;;5063118;28;20195;-79
2022/11/03 06:54:59;;;;;;;5.10;2.30;;;12.70;99.90;;;;;;5043985;28;20677;-78
2022/11/03 06:57:26;;;;;;;8.90;2.40;;;12.70;99.90;;;;;;5035179;28;20231;-78
2022/11/03 06:59:55;;;;;;;6.35;1.92;;;12.70;99.90;;;;;;5051170;28;20690;-78
2022/11/03 07:02:51;;;;;;;8.23;2.33;;;12.70;99.90;;;;;;5045422;28;20202;-76
2022/11/03 07:05:23;;;;;;;7.88;2.33;;;13.60;99.90;;;;;;5049531;28;20205;-77
2022/11/03 07:07:54;;;;;;;3.92;1.90;;;14.00;99.90;;;;;;5048416;28;20230;-78
2022/11/03 07:10:24;;;;;;;6.72;2.42;;;14.30;99.90;;;;;;5049201;28;20202;-76
2022/11/03 07:12:52;;;;;;;5.40;2.40;;;13.90;99.90;;;;;;5050308;28;20198;-76
2022/11/03 07:15:31;;;;;;;5.88;2.30;;;13.50;99.90;;;;;;5041926;28;20213;-76
2022/11/03 07:17:59;;;;;;;6.47;2.08;;;13.50;99.90;;;;;;5047213;28;20218;-75
2022/11/03 07:20:28;;;;;;;8.45;1.95;;;13.80;99.90;;;;;;5040516;28;20207;-76
2022/11/03 07:23:00;;;;;;;8.60;2.13;;;13.70;99.90;;;;;;5052593;28;20203;-75
2022/11/03 07:25:27;;;;;;;6.55;1.70;;;13.70;99.90;;;;;;5048396;28;20198;-77
2022/11/03 07:27:57;;;;;;;6.20;2.15;;;13.60;99.90;;;;;;5043271;28;20241;-79
2022/11/03 07:30:29;;;;;;;6.70;2.75;;;14.00;99.90;;;;;;5052007;28;20185;-77
2022/11/03 07:33:02;;;;;;;3.45;1.98;;;13.90;99.90;;;;;;5050932;28;20186;-76
2022/11/03 07:35:46;;;;;;;3.63;1.83;;;13.60;99.90;;;;;;5049996;28;20202;-76
2022/11/03 07:38:15;;;;;;;3.72;1.73;;;13.60;99.90;;;;;;5049402;28;20568;-76
2022/11/03 07:40:44;;;;;;;5.95;2.30;;;13.70;99.90;;;;;;5048537;28;20644;-77
2022/11/03 07:43:40;;;;;;;6.30;2.10;;;13.70;99.90;;;;;;5049072;28;20202;-77
2022/11/03 07:46:17;;;;;;;10.05;2.45;;;13.70;99.90;;;;;;5049364;28;20229;-76
2022/11/03 07:49:09;;;;;;;7.82;2.00;;;13.80;99.90;;;;;;5053386;28;20567;-78
2022/11/03 07:51:40;;;;;;;5.22;2.13;;;13.70;99.90;;;;;;5063323;28;20194;-75
2022/11/03 07:54:15;;;;;;;5.90;2.35;;;13.50;99.90;;;;;;5044005;28;20197;-77
2022/11/03 07:56:46;;;;;;;3.65;1.80;;;13.70;99.90;;;;;;5058360;28;20194;-76
2022/11/03 07:59:18;;;;;;;5.63;2.20;;;13.70;99.90;;;;;;5045682;28;20218;-78
2022/11/03 08:01:51;;;;;;;3.97;1.80;;;13.50;99.90;;;;;;5047255;28;20813;-79
2022/11/03 08:04:21;;;;;;;6.85;2.35;;;13.30;99.90;;;;;;5047415;28;20213;-78
2022/11/03 08:06:51;;;;;;;7.22;2.30;;;13.30;99.90;;;;;;5048176;28;20364;-76
2022/11/03 08:09:18;;;;;;;6.18;1.80;;;13.40;99.90;;;;;;5044989;28;20229;-79
2022/11/03 08:11:46;;;;;;;6.00;1.85;;;13.40;99.90;;;;;;5048961;28;20198;-77
2022/11/03 08:14:14;;;;;;;5.15;2.08;;;13.40;99.90;;;;;;5042729;28;20198;-79
2022/11/03 08:16:41;;;;;;;6.50;2.00;;;13.40;99.90;;;;;;5059333;28;20572;-78
2022/11/03 08:19:09;;;;;;;10.35;2.05;;;13.40;99.90;;;;;;5047727;28;20249;-78
2022/11/03 08:21:37;;;;;;;4.97;2.25;;;13.50;99.90;;;;;;5048651;28;20198;-78
2022/11/03 08:24:07;;;;;;;6.07;2.50;;;13.50;99.90;;;;;;5048081;28;20206;-81
2022/11/03 08:26:34;;;;;;;7.53;2.50;;;13.60;99.90;;;;;;5075427;28;20209;-78
2022/11/03 08:29:02;;;;;;;8.35;2.58;;;13.60;99.90;;;;;;5048568;28;20242;-79
2022/11/03 08:31:29;;;;;;;5.63;2.13;;;13.60;99.90;;;;;;5053688;28;20201;-79
2022/11/03 08:33:57;;;;;;;4.40;1.92;;;13.60;99.90;;;;;;5053511;28;20198;-79
2022/11/03 08:36:24;;;;;;;6.47;2.03;;;13.60;99.90;;;;;;5050470;28;20211;-79
2022/11/03 08:38:52;;;;;;;5.82;1.90;;;13.60;99.90;;;;;;5048730;28;20226;-79
2022/11/03 08:41:20;;;;;;;8.13;2.30;;;13.60;99.90;;;;;;5050040;28;20213;-79
2022/11/03 08:43:48;;;;;;;9.20;1.95;;;13.70;99.90;;;;;;5048413;28;20191;-79
2022/11/03 08:46:15;;;;;;;3.42;2.67;;;13.70;99.90;;;;;;5046973;28;20202;-79
2022/11/03 08:48:43;;;;;;;4.38;1.95;;;13.60;99.90;;;;;;5049823;28;20230;-79
2022/11/03 08:51:12;;;;;;;7.47;2.22;;;13.70;99.90;;;;;;5066542;28;20670;-80
2022/11/03 08:53:49;;;;;;;10.18;1.98;;;13.80;99.90;;;;;;5070005;28;20203;-79
2022/11/03 08:56:17;;;;;;;3.95;1.90;;;13.80;99.90;;;;;;5069564;28;20206;-79
2022/11/03 08:58:46;;;;;;;7.95;2.25;;;13.80;99.90;;;;;;5049212;28;20582;-80
2022/11/03 09:01:14;;;;;;;4.63;2.22;;;13.80;99.90;;;;;;5045187;28;20206;-79
2022/11/03 09:03:41;;;;;;;3.95;1.92;;;13.80;99.90;;;;;;5051357;28;20206;-80
2022/11/03 09:06:09;;;;;;;7.85;2.10;;;13.80;99.90;;;;;;5049127;28;20213;-80
2022/11/03 09:08:37;;;;;;;5.88;1.90;;;13.90;99.90;;;;;;5047722;28;20687;-80
2022/11/03 09:11:05;;;;;;;5.70;2.47;;;13.90;99.90;;;;;;5047520;28;20205;-79
2022/11/03 09:13:33;;;;;;;6.05;1.95;;;13.90;99.90;;;;;;5044922;28;20687;-79
2022/11/03 09:16:02;;;;;;;4.50;2.00;;;14.00;99.90;;;;;;5063494;28;20221;-80
2022/11/03 09:18:29;;;;;;;6.60;2.00;;;14.00;99.90;;;;;;5048836;28;20225;-80
2022/11/03 09:20:57;;;;;;;3.75;1.83;;;14.10;99.90;;;;;;5050366;28;20198;-80
2022/11/03 09:23:25;;;;;;;4.63;1.70;;;14.10;99.90;;;;;;5047584;28;20203;-80
2022/11/03 09:25:55;;;;;;;5.22;1.88;;;14.10;99.90;;;;;;5049626;28;20562;-80
2022/11/03 09:28:26;;;;;;;7.03;1.90;;;14.20;99.90;;;;;;5048418;28;20229;-79
2022/11/03 09:31:04;;;;;;;4.97;2.20;;;14.20;99.90;;;;;;5049653;28;20959;-80
2022/11/03 09:33:33;;;;;;;6.68;2.45;;;14.30;99.90;;;;;;5049997;28;20205;-80
2022/11/03 09:36:03;;;;;;;5.78;2.08;;;14.30;99.90;;;;;;5062805;28;20206;-80
2022/11/03 09:38:35;;;;;;;4.97;2.10;;;14.30;99.90;;;;;;5050292;28;20253;-80
2022/11/03 09:41:04;;;;;;;4.75;1.73;;;14.40;99.90;;;;;;5050072;28;20213;-80
2022/11/03 09:43:56;;;;;;;5.47;2.00;;;14.40;99.90;;;;;;5051557;28;20210;-82
2022/11/03 09:46:34;;;;;;;6.93;1.80;;;14.50;99.90;;;;;;5069776;28;20213;-81
2022/11/03 09:49:09;;;;;;;6.53;2.50;;;14.60;99.90;;;;;;5051614;28;20230;-82
2022/11/03 09:51:47;;;;;;;4.30;1.90;;;14.70;99.90;;;;;;5051050;28;20194;-81
2022/11/03 09:54:17;;;;;;;3.75;1.58;;;14.70;99.90;;;;;;5048627;28;20202;-80
2022/11/03 09:56:46;;;;;;;6.00;1.90;;;14.70;99.90;;;;;;5048342;28;20198;-80
2022/11/03 09:59:15;;;;;;;4.63;1.88;;;14.70;99.90;;;;;;5048983;28;20233;-83
2022/11/03 10:01:48;;;;;;;6.55;2.28;;;14.70;99.90;;;;;;5053703;28;20194;-81
2022/11/03 10:04:26;;;;;;;5.95;2.38;;;14.80;99.90;;;;;;5073078;28;20552;-80
2022/11/03 10:06:54;;;;;;;4.15;1.40;;;14.80;99.90;;;;;;5054855;28;20213;-82
2022/11/03 10:09:24;;;;;;;5.32;1.67;;;14.80;99.90;;;;;;5054486;28;20234;-81
2022/11/03 10:11:54;;;;;;;5.40;2.10;;;14.90;99.90;;;;;;5051720;28;20209;-83
2022/11/03 10:14:32;;;;;;;5.45;1.60;;;14.90;99.90;;;;;;5047508;28;20213;-83
2022/11/03 10:17:01;;;;;;;3.80;1.50;;;14.90;99.90;;;;;;5066785;28;20202;-83
2022/11/03 10:19:29;;;;;;;4.13;1.67;;;14.90;99.80;;;;;;5068499;28;20222;-82
2022/11/03 10:22:18;;;;;;;4.63;1.45;;;15.00;99.40;;;;;;5053020;28;20206;-84
2022/11/03 10:25:35;;;;;;;3.72;1.48;;;15.00;98.70;;;;;;5053737;28;20186;-82
2022/11/03 10:28:18;;;;;;;4.40;1.20;;;15.00;98.50;;;;;;5053468;28;20229;-82
2022/11/03 10:30:53;;;;;;;4.72;1.58;;;15.00;98.30;;;;;;5040173;28;20199;-81
2022/11/03 10:33:51;;;;;;;4.43;1.48;;;15.00;98.30;;;;;;5048301;28;20206;-82
2022/11/03 10:36:27;;;;;;;7.10;1.67;;;15.00;98.10;;;;;;5050082;28;20186;-82
2022/11/03 10:38:55;;;;;;;6.28;1.63;;;15.00;97.70;;;;;;5050203;28;20234;-83
2022/11/03 10:41:24;;;;;;;4.97;1.27;;;15.00;98.20;;;;;;5049063;28;20205;-83
2022/11/03 10:44:04;;;;;;;4.35;1.58;;;14.90;98.40;;;;;;5045014;28;20198;-83
2022/11/03 10:46:36;;;;;;;4.10;1.38;;;14.90;98.90;;;;;;5066339;28;20202;-82
2022/11/03 10:49:11;;;;;;;3.17;1.67;;;14.90;98.50;;;;;;5045231;28;20230;-81
2022/11/03 10:51:40;;;;;;;7.10;1.65;;;14.90;98.60;;;;;;5059915;28;20230;-82
2022/11/03 10:54:14;;;;;;;3.90;1.70;;;14.90;99.10;;;;;;5048261;28;20210;-82
2022/11/03 10:56:47;;;;;;;5.88;2.08;;;15.00;99.20;;;;;;5048803;28;20202;-82
2022/11/03 10:59:18;;;;;;;4.95;1.90;;;15.40;99.90;;;;;;5046769;28;20213;-81
2022/11/03 11:01:46;;;;;;;7.70;1.90;;;16.10;98.90;;;;;;5048444;28;20209;-82
2022/11/03 11:04:16;;;;;;;5.82;2.25;;;15.40;97.50;;;;;;5049897;28;20202;-82
2022/11/03 11:06:45;;;;;;;3.63;1.30;;;15.10;98.20;;;;;;5048734;28;20209;-80
2022/11/03 11:09:15;;;;;;;3.22;1.20;;;15.10;98.70;;;;;;5045808;28;20695;-81
2022/11/03 11:12:04;;;;;;;4.45;1.73;;;15.10;98.50;;;;;;5048482;28;20194;-81
2022/11/03 11:14:38;;;;;;;6.20;1.40;;;15.10;98.20;;;;;;5049171;28;20561;-80
2022/11/03 11:17:05;;;;;;;4.07;1.50;;;15.10;98.00;;;;;;5045572;28;20205;-79
2022/11/03 11:20:07;;;;;;;5.13;1.65;;;15.10;98.40;;;;;;5045180;28;20194;-79
2022/11/03 11:22:36;;;;;;;4.47;1.42;;;15.10;98.30;;;;;;5064816;28;20685;-79
2022/11/03 11:25:04;;;;;;;5.80;1.60;;;15.10;98.40;;;;;;5045321;28;20221;-78
2022/11/03 11:28:05;;;;;;;4.80;1.30;;;15.20;97.90;;;;;;5051278;28;20631;-78
2022/11/03 11:31:24;;;;;;;5.57;1.65;;;15.20;98.10;;;;;;5044029;28;20566;-77
2022/11/03 11:34:31;;;;;;;3.60;1.55;;;15.60;97.40;;;;;;5041469;28;20218;-79
2022/11/03 11:37:34;;;;;;;5.60;1.77;;;15.90;96.30;;;;;;5046249;28;20202;-79
2022/11/03 11:40:08;;;;;;;3.88;1.88;;;16.20;95.00;;;;;;5048827;28;20210;-79
2022/11/03 11:43:14;;;;;;;3.88;1.33;;;16.60;95.40;;;;;;5048214;28;20198;-80
2022/11/03 11:46:19;;;;;;;2.10;1.05;;;17.20;94.70;;;;;;5040485;28;20202;-79
2022/11/03 11:48:50;;;;;;;3.85;1.40;;;17.20;93.80;;;;;;5065807;28;20209;-79
2022/11/03 11:51:25;;;;;;;5.25;1.67;;;17.40;93.10;;;;;;5046713;28;20195;-79
2022/11/03 11:53:52;;;;;;;4.40;1.73;;;17.70;92.70;;;;;;5042263;28;20206;-79
2022/11/03 11:56:21;;;;;;;3.95;1.23;;;17.70;91.50;;;;;;5047509;28;20207;-81
2022/11/03 11:58:50;;;;;;;4.15;1.20;;;17.40;91.70;;;;;;5047363;28;20264;-81
2022/11/03 12:01:23;;;;;;;3.83;1.33;;;17.30;91.70;;;;;;5050520;28;20202;-81
2022/11/03 12:03:53;;;;;;;5.50;1.50;;;17.50;91.70;;;;;;5047674;28;20203;-84
2022/11/03 12:06:33;;;;;;;3.60;1.20;;;17.60;90.80;;;;;;5065899;28;20198;-82
2022/11/03 12:09:16;;;;;;;3.13;1.23;;;17.50;90.90;;;;;;5063889;28;20222;-84
2022/11/03 12:11:47;;;;;;;5.07;1.42;;;17.70;90.40;;;;;;5047248;28;20201;-83
2022/11/03 12:14:25;;;;;;;3.40;1.25;;;17.60;90.90;;;;;;5046927;28;20201;-83
2022/11/03 12:16:57;;;;;;;3.70;1.02;;;17.70;90.30;;;;;;5046923;28;20683;-82
2022/11/03 12:19:43;;;;;;;3.10;1.35;;;17.80;90.30;;;;;;5048155;28;20288;-82
2022/11/03 12:22:12;;;;;;;3.15;1.00;;;17.90;89.50;;;;;;5051091;28;20527;-83
2022/11/03 12:24:51;;;;;;;3.03;1.30;;;17.30;90.30;;;;;;5043630;28;20198;-82
2022/11/03 12:27:43;;;;;;;4.28;1.50;;;16.90;90.40;;;;;;5048328;28;20198;-84
2022/11/03 12:30:16;;;;;;;4.53;1.27;;;16.70;91.40;;;;;;5046054;28;20214;-82
2022/11/03 12:32:44;;;;;;;2.08;1.05;;;16.50;92.10;;;;;;5042963;28;20202;-82
2022/11/03 12:35:13;;;;;;;3.03;1.20;;;16.30;92.80;;;;;;5050794;28;20230;-82
2022/11/03 12:37:41;;;;;;;2.53;1.23;;;16.20;93.00;;;;;;5046766;28;20218;-83
2022/11/03 12:40:11;;;;;;;4.85;1.67;;;16.20;93.80;;;;;;5061114;28;20195;-82
2022/11/03 12:42:40;;;;;;;5.25;1.20;;;16.10;94.00;;;;;;5063202;28;20198;-79
2022/11/03 12:45:09;;;;;;;5.65;1.30;;;16.00;94.20;;;;;;5051267;28;20199;-81
2022/11/03 12:47:36;;;;;;;4.07;1.27;;;16.00;94.60;;;;;;5062704;28;20218;-81
2022/11/03 12:50:24;;;;;;;2.85;1.42;;;15.90;94.80;;;;;;5060654;28;20230;-81
2022/11/03 12:52:57;;;;;;;3.25;1.40;;;15.90;94.80;;;;;;5061707;28;20210;-81
2022/11/03 12:55:24;;;;;;;2.25;1.50;;;16.00;94.90;;;;;;5060916;28;20198;-81
2022/11/03 12:57:53;;;;;;;2.80;1.20;;;16.10;94.80;;;;;;5072429;28;20230;-81
2022/11/03 13:00:21;;;;;;;1.98;1.20;;;16.20;94.60;;;;;;5071534;28;20201;-81
2022/11/03 13:02:51;;;;;;;4.85;1.52;;;16.30;94.60;;;;;;5045844;28;20661;-82
2022/11/03 13:05:22;;;;;;;2.95;0.98;;;16.50;94.50;;;;;;5043184;28;20206;-81
2022/11/03 13:07:49;;;;;;;3.65;1.45;;;16.40;94.30;;;;;;5047726;28;20218;-80
2022/11/03 13:10:17;;;;;;;3.17;1.60;;;16.30;94.60;;;;;;5046288;28;20285;-80
2022/11/03 13:12:45;;;;;;;1.88;1.30;;;16.20;94.50;;;;;;5050720;28;20555;-80
2022/11/03 13:15:19;;;;;;;4.47;1.52;;;16.10;94.30;;;;;;5051257;28;20202;-82
2022/11/03 13:17:59;;;;;;;6.45;1.50;;;16.10;94.90;;;;;;5049661;28;20222;-81
2022/11/03 13:20:48;;;;;;;2.53;1.58;;;16.00;95.70;;;;;;5046435;28;20207;-83
2022/11/03 13:23:17;;;;;;;2.05;1.50;;;16.00;95.60;;;;;;5047352;28;20201;-81
2022/11/03 13:25:46;;;;;;;4.40;1.20;;;15.80;95.50;;;;;;5048751;28;20213;-81
2022/11/03 13:28:15;;;;;;;4.20;1.80;;;15.80;96.10;;;;;;5060267;28;20233;-82
2022/11/03 13:30:44;;;;;;;3.60;2.05;;;15.70;96.10;;;;;;5050102;28;20222;-82
2022/11/03 13:33:12;;;;;;;4.45;1.40;;;15.70;96.60;;;;;;5049100;28;20202;-81